Time;durP1;ratioP1;P1;durP2;ratioP2;P2;SDS_P1;SDS_P2;PMS_P1;PMS_P2;Temp;Humidity;BMP_temperature;BMP_pressure;BME280_temperature;BME280_humidity;BME280_pressure;Samples;Min_cycle;Max_cycle;Signal;HPM_P1;HPM_P2
2023/12/24 00:00:37;;;;;;;;;0.00;0.00;;;;;-146.67;53.04;75546.19;5084003;27;62508;-82
2023/12/24 00:03:03;;;;;;;;;0.00;0.00;;;;;-146.67;53.00;75560.16;5098571;27;64715;-82
2023/12/24 00:05:28;;;;;;;;;1.00;0.00;;;;;-146.67;53.11;75554.16;5098849;27;62132;-81
2023/12/24 00:07:54;;;;;;;;;0.25;0.25;;;;;-146.67;52.77;75574.13;5083825;28;62078;-82
2023/12/24 00:10:19;;;;;;;;;0.50;0.00;;;;;-146.67;52.88;75566.16;5083639;28;61934;-82
2023/12/24 00:12:44;;;;;;;;;0.00;0.00;;;;;-146.67;53.21;75566.16;5082113;28;61972;-81
2023/12/24 00:15:10;;;;;;;;;1.25;0.50;;;;;-146.67;53.11;75574.13;5083427;27;61865;-82
2023/12/24 00:17:35;;;;;;;;;0.00;0.00;;;;;-146.67;52.96;75574.13;5083650;27;61704;-82
2023/12/24 00:20:01;;;;;;;;;0.25;0.25;;;;;-146.67;52.96;75570.16;5082013;27;62068;-82
2023/12/24 00:22:28;;;;;;;;;1.00;1.00;;;;;-146.67;52.90;75566.16;5082675;27;61861;-81
2023/12/24 00:24:54;;;;;;;;;0.00;0.00;;;;;-146.67;52.98;75566.16;5083480;27;61900;-82
2023/12/24 00:27:19;;;;;;;;;0.00;0.00;;;;;-146.67;53.05;75576.13;5082942;27;61844;-81
2023/12/24 00:29:44;;;;;;;;;0.00;0.00;;;;;-146.67;53.04;75558.16;5082148;28;61929;-82
2023/12/24 00:32:10;;;;;;;;;1.00;0.00;;;;;-146.67;52.97;75580.13;5082229;27;61949;-81
2023/12/24 00:34:35;;;;;;;;;0.00;0.00;;;;;-146.67;52.96;75576.13;5083138;27;61963;-82
2023/12/24 00:37:01;;;;;;;;;0.00;0.00;;;;;-146.67;53.06;75574.13;5083466;27;61964;-82
2023/12/24 00:39:26;;;;;;;;;0.00;0.00;;;;;-146.67;53.20;75582.13;5083085;27;61685;-82
2023/12/24 00:41:51;;;;;;;;;2.00;0.00;;;;;-146.67;53.26;75576.13;5082069;27;62494;-81
2023/12/24 00:44:17;;;;;;;;;0.75;0.75;;;;;-146.67;53.02;75566.16;5082887;27;61765;-82
2023/12/24 00:46:44;;;;;;;;;0.00;0.00;;;;;-146.67;53.03;75556.16;5081639;28;62189;-82
2023/12/24 00:49:09;;;;;;;;;0.00;0.00;;;;;-146.67;52.96;75552.19;5082552;27;61849;-81
2023/12/24 00:51:40;;;;;;;;;1.00;1.00;;;;;-146.67;52.95;75548.19;5082174;27;61987;-81
2023/12/24 00:54:06;;;;;;;;;0.50;0.50;;;;;-146.67;52.99;75562.16;5082846;27;62358;-82
2023/12/24 00:56:31;;;;;;;;;0.00;0.00;;;;;-146.67;52.95;75548.19;5082575;27;61882;-82
2023/12/24 00:58:56;;;;;;;;;1.00;0.00;;;;;-146.67;53.02;75540.19;5083093;27;61817;-82
2023/12/24 01:01:22;;;;;;;;;0.50;0.00;;;;;-146.67;53.01;75548.19;5081839;27;62340;-81
2023/12/24 01:03:47;;;;;;;;;1.75;0.75;;;;;-146.67;53.47;75546.19;5082534;27;61759;-81
2023/12/24 01:06:12;;;;;;;;;1.00;0.75;;;;;-146.67;53.26;75550.19;5081138;28;61828;-82
2023/12/24 01:08:38;;;;;;;;;0.75;0.75;;;;;-146.67;53.32;75548.19;5082917;27;62047;-81
2023/12/24 01:11:03;;;;;;;;;0.75;0.75;;;;;-146.67;53.36;75538.19;5081971;27;61943;-82
2023/12/24 01:13:28;;;;;;;;;0.25;0.25;;;;;-146.67;53.37;75538.19;5080589;28;62192;-82
2023/12/24 01:15:54;;;;;;;;;1.75;0.00;;;;;-146.67;53.43;75546.19;5081352;28;61846;-81
2023/12/24 01:18:19;;;;;;;;;1.00;1.00;;;;;-146.67;53.64;75558.16;5082455;27;61813;-81
2023/12/24 01:20:44;;;;;;;;;1.00;1.00;;;;;-146.67;53.65;75548.19;5080094;27;62612;-81
2023/12/24 01:23:10;;;;;;;;;0.00;0.00;;;;;-146.67;53.62;75550.19;5082440;27;61911;-81
2023/12/24 01:25:35;;;;;;;;;2.00;0.50;;;;;-146.67;53.42;75562.16;5082163;27;62304;-82
2023/12/24 01:28:01;;;;;;;;;0.50;0.50;;;;;-146.67;53.70;75558.16;5082416;27;61751;-81
2023/12/24 01:30:26;;;;;;;;;0.00;0.00;;;;;-146.67;53.50;75570.16;5080318;28;64924;-81
2023/12/24 01:32:51;;;;;;;;;0.00;0.00;;;;;-146.67;53.56;75564.16;5097441;27;61867;-81
2023/12/24 01:35:17;;;;;;;;;1.25;0.00;;;;;-146.67;53.49;75552.19;5082086;27;62704;-82
2023/12/24 01:37:42;;;;;;;;;1.00;1.00;;;;;-146.67;53.56;75556.16;5082587;27;61941;-82
2023/12/24 01:40:08;;;;;;;;;0.00;0.00;;;;;-146.67;53.42;75548.19;5079917;28;64028;-81
2023/12/24 01:42:33;;;;;;;;;0.00;0.00;;;;;-146.67;53.49;75546.19;5081969;28;61723;-82
2023/12/24 01:44:59;;;;;;;;;1.00;1.00;;;;;-146.67;53.62;75552.19;5082329;27;62429;-81
2023/12/24 01:47:25;;;;;;;;;0.00;0.00;;;;;-146.67;53.62;75552.19;5080803;28;61942;-82
2023/12/24 01:49:51;;;;;;;;;0.25;0.25;;;;;-146.67;53.73;75550.19;5079399;28;63584;-81
2023/12/24 01:52:17;;;;;;;;;1.25;1.25;;;;;-146.67;53.56;75546.19;5081955;27;61791;-81
2023/12/24 01:54:47;;;;;;;;;1.00;0.00;;;;;-146.67;53.58;75550.19;5081759;27;62016;-81
2023/12/24 01:57:14;;;;;;;;;0.00;0.00;;;;;-146.67;53.56;75556.16;5082427;27;61946;-81
2023/12/24 01:59:40;;;;;;;;;0.75;0.75;;;;;-146.67;53.68;75554.16;5079986;28;64841;-81
2023/12/24 02:02:06;;;;;;;;;0.00;0.00;;;;;-146.67;53.52;75554.16;5081830;27;61967;-82
2023/12/24 02:04:32;;;;;;;;;2.00;0.00;;;;;-146.67;53.45;75542.19;5081629;27;61926;-82
2023/12/24 02:06:58;;;;;;;;;0.00;0.00;;;;;-146.67;53.18;75534.19;5082330;27;62055;-82
2023/12/24 02:09:23;;;;;;;;;0.00;0.00;;;;;-146.67;53.28;75544.19;5080812;27;62758;-81
2023/12/24 02:11:50;;;;;;;;;0.00;0.00;;;;;-146.67;53.34;75546.19;5080300;28;62055;-81
2023/12/24 02:14:15;;;;;;;;;0.00;0.00;;;;;-146.67;53.67;75546.19;5081771;27;61823;-82
2023/12/24 02:16:46;;;;;;;;;1.00;1.00;;;;;-146.67;53.48;75546.19;5081756;28;61728;-81
2023/12/24 02:19:17;;;;;;;;;2.00;1.00;;;;;-146.67;53.61;75558.16;5078886;28;64046;-82
2023/12/24 02:21:43;;;;;;;;;0.25;0.00;;;;;-146.67;53.57;75554.16;5081186;28;61697;-81
2023/12/24 02:24:08;;;;;;;;;0.00;0.00;;;;;-146.67;53.49;75556.16;5081787;27;62189;-82
2023/12/24 02:26:42;;;;;;;;;1.00;1.00;;;;;-146.67;53.34;75534.19;5080403;28;61912;-82
2023/12/24 02:29:15;;;;;;;;;1.75;0.00;;;;;-146.67;53.79;75542.19;5079863;28;65094;-81
2023/12/24 02:31:44;;;;;;;;;0.00;0.00;;;;;-146.67;53.67;75552.19;5079767;28;61753;-81
2023/12/24 02:34:14;;;;;;;;;1.00;1.00;;;;;-146.67;53.47;75554.16;5081465;27;62004;-81
2023/12/24 02:36:40;;;;;;;;;1.00;0.00;;;;;-146.67;53.59;75556.16;5079972;28;62088;-81
2023/12/24 02:39:05;;;;;;;;;0.00;0.00;;;;;-146.67;53.58;75550.19;5079800;28;63521;-81
2023/12/24 02:41:31;;;;;;;;;1.75;0.50;;;;;-146.67;53.50;75548.19;5081343;28;61822;-82
2023/12/24 02:43:56;;;;;;;;;2.00;0.00;;;;;-146.67;53.45;75544.19;5080048;28;62222;-81
2023/12/24 02:46:21;;;;;;;;;0.00;0.00;;;;;-146.67;53.69;75546.19;5084562;27;61651;-81
2023/12/24 02:48:47;;;;;;;;;0.00;0.00;;;;;-146.67;53.70;75534.19;5083587;27;61648;-81
2023/12/24 02:51:12;;;;;;;;;1.50;1.00;;;;;-146.67;53.56;75516.22;5084134;27;61734;-81
2023/12/24 02:53:37;;;;;;;;;0.00;0.00;;;;;-146.67;53.51;75540.19;5084674;27;61728;-82
2023/12/24 02:56:03;;;;;;;;;0.75;0.00;;;;;-146.67;53.51;75538.19;5084893;27;61799;-81
2023/12/24 02:58:28;;;;;;;;;0.00;0.00;;;;;-146.67;53.86;75530.22;5084285;27;61814;-81
2023/12/24 03:00:54;;;;;;;;;0.00;0.00;;;;;-146.67;53.55;75526.22;5084584;27;61892;-82
2023/12/24 03:03:19;;;;;;;;;0.00;0.00;;;;;-146.67;53.76;75530.22;5084610;27;61849;-82
2023/12/24 03:05:44;;;;;;;;;0.00;0.00;;;;;-146.67;53.81;75526.22;5083882;27;61722;-81
2023/12/24 03:08:10;;;;;;;;;1.00;1.00;;;;;-146.67;53.80;75520.22;5082548;28;64973;-81
2023/12/24 03:10:35;;;;;;;;;1.00;0.25;;;;;-146.67;53.94;75514.22;5084583;27;61793;-81
2023/12/24 03:13:00;;;;;;;;;0.00;0.00;;;;;-146.67;53.98;75524.22;5084370;27;62010;-82
2023/12/24 03:15:26;;;;;;;;;0.50;0.50;;;;;-146.67;53.88;75526.22;5084673;27;62052;-82
2023/12/24 03:17:51;;;;;;;;;1.00;1.00;;;;;-146.67;54.04;75526.22;5099444;27;63649;-81
2023/12/24 03:20:16;;;;;;;;;2.00;0.00;;;;;-146.67;53.85;75518.22;5082915;27;61987;-82
2023/12/24 03:22:42;;;;;;;;;0.00;0.00;;;;;-146.67;53.95;75508.25;5084274;27;61724;-82
2023/12/24 03:25:07;;;;;;;;;0.00;0.00;;;;;-146.67;54.13;75510.25;5084585;27;61815;-81
2023/12/24 03:27:33;;;;;;;;;0.50;0.50;;;;;-146.67;54.09;75526.22;5083885;27;62064;-81
2023/12/24 03:29:58;;;;;;;;;2.00;0.50;;;;;-146.67;54.34;75526.22;5084300;27;61838;-82
2023/12/24 03:32:23;;;;;;;;;0.00;0.00;;;;;-146.67;54.24;75504.25;5084243;27;61762;-81
2023/12/24 03:34:49;;;;;;;;;0.00;0.00;;;;;-146.67;54.31;75516.22;5081795;28;62111;-81
2023/12/24 03:37:14;;;;;;;;;0.00;0.00;;;;;-146.67;54.14;75522.22;5083749;27;61880;-82
2023/12/24 03:39:39;;;;;;;;;0.00;0.00;;;;;-146.67;54.24;75510.25;5084011;27;61837;-82
2023/12/24 03:42:05;;;;;;;;;0.00;0.00;;;;;-146.67;54.29;75516.22;5084043;27;61761;-81
2023/12/24 03:44:30;;;;;;;;;0.00;0.00;;;;;-146.67;54.28;75498.25;5084287;27;61790;-81
2023/12/24 03:46:56;;;;;;;;;3.75;1.00;;;;;-146.67;54.25;75504.25;5083189;27;61930;-82
2023/12/24 03:49:21;;;;;;;;;1.00;0.00;;;;;-146.67;54.50;75514.22;5082603;27;61770;-81
2023/12/24 03:51:47;;;;;;;;;0.75;0.50;;;;;-146.67;54.48;75530.22;5083878;27;61814;-81
2023/12/24 03:54:13;;;;;;;;;1.50;0.00;;;;;-146.67;54.49;75528.22;5084196;27;61669;-82
2023/12/24 03:56:38;;;;;;;;;0.50;0.50;;;;;-146.67;54.61;75524.22;5098540;27;63468;-81
2023/12/24 03:59:04;;;;;;;;;0.00;0.00;;;;;-146.67;54.50;75516.22;5082450;28;61843;-82
2023/12/24 04:01:29;;;;;;;;;0.50;0.50;;;;;-146.67;54.50;75526.22;5083744;27;61735;-82
2023/12/24 04:03:54;;;;;;;;;1.75;0.00;;;;;-146.67;54.73;75548.19;5082635;27;61845;-82
2023/12/24 04:06:20;;;;;;;;;0.00;0.00;;;;;-146.67;54.72;75540.19;5083294;27;61839;-82
2023/12/24 04:08:45;;;;;;;;;1.75;1.00;;;;;-146.67;54.58;75532.22;5083357;27;62127;-81
2023/12/24 04:11:17;;;;;;;;;2.00;0.00;;;;;-146.67;54.66;75518.22;5083763;27;61963;-82
2023/12/24 04:13:43;;;;;;;;;1.00;1.00;;;;;-146.67;54.29;75514.22;5083513;27;61914;-81
2023/12/24 04:16:09;;;;;;;;;0.00;0.00;;;;;-146.67;54.37;75512.25;5082815;28;61783;-82
2023/12/24 04:18:35;;;;;;;;;0.25;0.00;;;;;-146.67;54.14;75506.25;5082938;27;62376;-81
2023/12/24 04:21:01;;;;;;;;;1.00;1.00;;;;;-146.67;54.15;75496.25;5082474;27;61769;-82
2023/12/24 04:23:26;;;;;;;;;0.00;0.00;;;;;-146.67;54.17;75494.25;5099205;27;62102;-82
2023/12/24 04:25:51;;;;;;;;;0.50;0.50;;;;;-146.67;54.00;75488.28;5082697;27;61908;-82
2023/12/24 04:28:17;;;;;;;;;1.00;1.00;;;;;-146.67;54.09;75484.28;5083286;27;61887;-81
2023/12/24 04:30:42;;;;;;;;;1.00;1.00;;;;;-146.67;54.34;75478.28;5083354;27;61874;-81
2023/12/24 04:33:08;;;;;;;;;2.50;1.25;;;;;-146.67;54.34;75480.28;5082945;27;62182;-82
2023/12/24 04:35:33;;;;;;;;;2.00;0.00;;;;;-146.67;54.31;75484.28;5081029;28;63638;-82
2023/12/24 04:37:59;;;;;;;;;0.75;0.00;;;;;-146.67;54.31;75482.28;5083220;27;61790;-81
2023/12/24 04:40:25;;;;;;;;;1.00;1.00;;;;;-146.67;54.26;75486.28;5083338;27;62082;-81
2023/12/24 04:42:50;;;;;;;;;2.75;1.00;;;;;-146.67;54.57;75498.25;5082993;27;61711;-82
2023/12/24 04:45:16;;;;;;;;;2.00;2.00;;;;;-146.67;54.74;75498.25;5098073;27;63732;-82
2023/12/24 04:47:41;;;;;;;;;1.25;1.00;;;;;-146.67;54.81;75506.25;5082802;27;61895;-81
2023/12/24 04:50:07;;;;;;;;;2.25;0.50;;;;;-146.67;54.72;75512.25;5080668;28;61923;-81
2023/12/24 04:52:35;;;;;;;;;0.50;0.00;;;;;-146.67;54.70;75518.22;5083197;27;61992;-82
2023/12/24 04:55:09;;;;;;;;;0.25;0.25;;;;;-146.67;55.06;75530.22;5080825;28;65070;-82
2023/12/24 04:57:35;;;;;;;;;1.00;0.00;;;;;-146.67;54.92;75524.22;5082881;27;61882;-81
2023/12/24 05:00:00;;;;;;;;;0.00;0.00;;;;;-146.67;54.86;75530.22;5081255;28;61947;-82
2023/12/24 05:02:26;;;;;;;;;1.50;1.50;;;;;-146.67;55.06;75536.19;5082869;27;62001;-81
2023/12/24 05:04:54;;;;;;;;;1.00;1.00;;;;;-146.67;54.98;75538.19;5084844;28;62428;-80
2023/12/24 05:07:19;;;;;;;;;0.00;0.00;;;;;-146.67;55.00;75536.19;5082144;28;61724;-81
2023/12/24 05:09:45;;;;;;;;;0.25;0.25;;;;;-146.67;54.90;75536.19;5082533;28;61744;-82
2023/12/24 05:12:10;;;;;;;;;5.00;1.00;;;;;-146.67;55.03;75534.19;5082535;28;61739;-81
2023/12/24 05:14:35;;;;;;;;;2.00;1.00;;;;;-146.67;54.99;75554.16;5082052;27;62955;-82
2023/12/24 05:17:04;;;;;;;;;1.75;1.00;;;;;-146.67;55.14;75558.16;5081986;28;61719;-81
2023/12/24 05:19:29;;;;;;;;;1.00;1.00;;;;;-146.67;55.00;75540.19;5093682;27;62032;-81
2023/12/24 05:21:55;;;;;;;;;1.00;1.00;;;;;-146.67;55.04;75544.19;5082649;27;61755;-81
2023/12/24 05:24:21;;;;;;;;;2.50;0.75;;;;;-146.67;54.70;75536.19;5081674;27;62024;-82
2023/12/24 05:26:46;;;;;;;;;0.00;0.00;;;;;-146.67;54.81;75532.22;5082421;27;61822;-81
2023/12/24 05:29:12;;;;;;;;;2.00;1.00;;;;;-146.67;54.79;75526.22;5082433;27;61824;-82
2023/12/24 05:31:41;;;;;;;;;0.75;0.75;;;;;-146.67;54.76;75522.22;5082266;27;62021;-82
2023/12/24 05:34:08;;;;;;;;;1.00;1.00;;;;;-146.67;54.71;75520.22;5081066;28;61948;-82
2023/12/24 05:36:34;;;;;;;;;5.00;0.00;;;;;-146.67;54.63;75510.25;5080980;28;61900;-82
2023/12/24 05:38:59;;;;;;;;;1.00;1.00;;;;;-146.67;54.66;75508.25;5082466;27;61775;-82
2023/12/24 05:41:25;;;;;;;;;1.25;0.00;;;;;-146.67;54.72;75492.28;5082477;27;61783;-82
2023/12/24 05:43:50;;;;;;;;;2.00;1.00;;;;;-146.67;54.67;75492.28;5081425;28;62686;-81
2023/12/24 05:46:15;;;;;;;;;1.50;0.00;;;;;-146.67;54.69;75486.28;5080276;28;62069;-82
2023/12/24 05:48:42;;;;;;;;;2.75;1.50;;;;;-146.67;54.81;75496.25;5082089;27;61873;-81
2023/12/24 05:51:08;;;;;;;;;3.00;1.50;;;;;-146.67;54.81;75484.28;5081859;28;61759;-82
2023/12/24 05:53:33;;;;;;;;;1.00;1.00;;;;;-146.67;54.93;75472.28;5081577;27;61762;-81
2023/12/24 05:55:59;;;;;;;;;4.00;1.00;;;;;-146.67;54.83;75476.28;5082062;27;61888;-81
2023/12/24 05:58:25;;;;;;;;;3.75;2.75;;;;;-146.67;54.95;75476.28;5081983;27;62016;-82
2023/12/24 06:00:51;;;;;;;;;3.75;1.00;;;;;-146.67;54.89;75474.28;5080509;28;61984;-81
2023/12/24 06:03:17;;;;;;;;;0.50;0.50;;;;;-146.67;54.86;75460.31;5080836;28;61723;-81
2023/12/24 06:05:42;;;;;;;;;1.00;1.00;;;;;-146.67;55.02;75472.28;5081717;27;61886;-82
2023/12/24 06:08:08;;;;;;;;;3.50;1.00;;;;;-146.67;55.17;75472.28;5080501;28;61742;-82
2023/12/24 06:10:34;;;;;;;;;1.00;1.00;;;;;-146.67;54.98;75466.31;5082215;27;61997;-82
2023/12/24 06:12:59;;;;;;;;;3.00;0.75;;;;;-146.67;54.95;75462.31;5080889;28;62759;-81
2023/12/24 06:15:25;;;;;;;;;0.00;0.00;;;;;-146.67;54.89;75458.31;5081466;27;61932;-82
2023/12/24 06:17:50;;;;;;;;;2.00;1.25;;;;;-146.67;55.04;75448.34;5097675;27;61620;-82
2023/12/24 06:20:15;;;;;;;;;4.00;1.25;;;;;-146.67;54.95;75460.31;5083378;27;62018;-81
2023/12/24 06:22:41;;;;;;;;;1.75;1.00;;;;;-146.67;55.11;75466.31;5084632;27;61938;-81
2023/12/24 06:25:06;;;;;;;;;3.00;1.00;;;;;-146.67;55.08;75466.31;5085431;27;61952;-82
2023/12/24 06:27:31;;;;;;;;;8.25;4.00;;;;;-146.67;55.03;75452.31;5083785;28;61905;-82
2023/12/24 06:29:57;;;;;;;;;2.00;2.00;;;;;-146.67;54.91;75454.31;5083673;28;61963;-81
2023/12/24 06:32:22;;;;;;;;;7.25;2.75;;;;;-146.67;54.86;75454.31;5084235;27;62740;-81
2023/12/24 06:34:48;;;;;;;;;2.00;0.75;;;;;-146.67;55.22;75456.31;5084985;27;62038;-81
2023/12/24 06:37:13;;;;;;;;;4.75;1.00;;;;;-146.67;55.06;75450.34;5085176;28;61826;-82
2023/12/24 06:39:39;;;;;;;;;1.75;0.50;;;;;-146.67;55.11;75458.31;5085054;27;62020;-81
2023/12/24 06:42:04;;;;;;;;;1.25;1.25;;;;;-146.67;55.22;75466.31;5082913;28;64095;-81
2023/12/24 06:44:30;;;;;;;;;2.75;1.00;;;;;-146.67;54.98;75464.31;5084447;28;61957;-81
2023/12/24 06:46:55;;;;;;;;;3.00;2.00;;;;;-146.67;55.18;75466.31;5085060;27;61915;-81
2023/12/24 06:49:21;;;;;;;;;0.50;0.25;;;;;-146.67;55.13;75450.34;5084129;27;61855;-82
2023/12/24 06:51:46;;;;;;;;;2.75;2.00;;;;;-146.67;55.18;75448.34;5084230;27;61739;-81
2023/12/24 06:54:11;;;;;;;;;3.00;0.00;;;;;-146.67;55.00;75456.31;5084710;27;61679;-82
2023/12/24 06:56:37;;;;;;;;;2.75;0.75;;;;;-146.67;55.00;75462.31;5084812;27;61894;-82
2023/12/24 06:59:02;;;;;;;;;2.00;1.00;;;;;-146.67;55.11;75468.31;5084798;27;61723;-82
2023/12/24 07:01:28;;;;;;;;;4.00;1.75;;;;;-146.67;55.25;75456.31;5082432;28;64470;-82
2023/12/24 07:03:53;;;;;;;;;2.00;1.00;;;;;-146.67;55.28;75450.34;5084300;27;61701;-81
2023/12/24 07:06:18;;;;;;;;;0.00;0.00;;;;;-146.67;55.15;75444.34;5083258;28;61764;-82
2023/12/24 07:08:44;;;;;;;;;4.00;1.00;;;;;-146.67;55.22;75434.34;5084799;27;61862;-82
2023/12/24 07:11:09;;;;;;;;;1.00;1.00;;;;;-146.67;55.07;75446.34;5084191;27;61775;-82
2023/12/24 07:13:35;;;;;;;;;1.75;1.00;;;;;-146.67;55.17;75446.34;5082179;28;61824;-81
2023/12/24 07:16:00;;;;;;;;;4.75;1.00;;;;;-146.67;55.46;75438.34;5084595;27;61787;-82
2023/12/24 07:18:26;;;;;;;;;1.00;0.00;;;;;-146.67;55.29;75444.34;5084583;27;61777;-82
2023/12/24 07:20:51;;;;;;;;;2.75;2.00;;;;;-146.67;55.35;75438.34;5081291;28;63539;-82
2023/12/24 07:23:17;;;;;;;;;1.00;1.00;;;;;-146.67;55.28;75420.38;5084296;27;61732;-82
2023/12/24 07:25:42;;;;;;;;;4.25;1.00;;;;;-146.67;55.30;75432.34;5084356;27;61880;-82
2023/12/24 07:28:07;;;;;;;;;1.00;0.50;;;;;-146.67;55.65;75440.34;5084098;27;61890;-82
2023/12/24 07:30:33;;;;;;;;;9.00;6.50;;;;;-146.67;55.51;75424.38;5082895;27;61897;-82
2023/12/24 07:32:59;;;;;;;;;5.50;5.50;;;;;-146.67;55.57;75424.38;5084066;27;61880;-82
2023/12/24 07:35:25;;;;;;;;;5.00;3.00;;;;;-146.67;55.73;75428.38;5083846;27;61924;-82
2023/12/24 07:37:50;;;;;;;;;3.00;1.75;;;;;-146.67;56.07;75444.34;5100060;27;61821;-82
2023/12/24 07:40:16;;;;;;;;;3.50;1.00;;;;;-146.67;56.43;75448.34;5083371;27;62434;-82
2023/12/24 07:42:41;;;;;;;;;5.25;3.00;;;;;-146.67;56.38;75436.34;5083345;28;61879;-82
2023/12/24 07:45:07;;;;;;;;;2.00;2.00;;;;;-146.67;56.58;75434.34;5099684;27;61904;-82
2023/12/24 07:47:33;;;;;;;;;1.75;1.25;;;;;-146.67;56.66;75430.38;5099785;27;61961;-82
2023/12/24 07:49:58;;;;;;;;;0.75;0.00;;;;;-146.67;56.69;75438.34;5082489;28;61734;-82
2023/12/24 07:52:24;;;;;;;;;4.75;2.00;;;;;-146.67;56.79;75434.34;5099405;27;61703;-81
2023/12/24 07:54:49;;;;;;;;;2.00;1.50;;;;;-146.67;56.60;75424.38;5083783;28;61743;-81
2023/12/24 07:57:15;;;;;;;;;2.50;1.00;;;;;-146.67;56.95;75430.38;5099489;27;62096;-81
2023/12/24 07:59:40;;;;;;;;;1.00;1.00;;;;;-146.67;56.70;75422.38;5082962;28;61847;-82
2023/12/24 08:02:06;;;;;;;;;2.00;2.00;;;;;-146.67;56.87;75434.34;5099346;27;61900;-82
2023/12/24 08:04:31;;;;;;;;;1.75;1.25;;;;;-146.67;57.06;75440.34;5083033;28;62171;-81
2023/12/24 08:06:57;;;;;;;;;1.50;1.25;;;;;-146.67;57.17;75454.31;5099499;27;62068;-82
2023/12/24 08:09:22;;;;;;;;;1.00;1.00;;;;;-146.67;56.90;75448.34;5098704;27;63602;-82
2023/12/24 08:11:48;;;;;;;;;2.75;1.00;;;;;-146.67;56.70;75444.34;5098916;27;61855;-81
2023/12/24 08:14:13;;;;;;;;;1.00;1.00;;;;;-146.67;56.72;75452.31;5083427;27;62051;-82
2023/12/24 08:16:38;;;;;;;;;1.50;1.50;;;;;-146.67;56.68;75440.34;5083651;28;61957;-81
2023/12/24 08:19:03;;;;;;;;;2.00;2.00;;;;;-146.67;56.66;75450.34;5081675;27;62498;-82
2023/12/24 08:21:29;;;;;;;;;2.00;1.50;;;;;-146.67;56.56;75450.34;5083356;27;61958;-81
2023/12/24 08:23:54;;;;;;;;;1.25;1.25;;;;;-146.67;56.52;75458.31;5083259;27;62117;-82
2023/12/24 08:26:20;;;;;;;;;1.25;1.25;;;;;-146.67;56.53;75454.31;5082163;28;61947;-81
2023/12/24 08:28:45;;;;;;;;;0.25;0.25;;;;;-146.67;56.39;75454.31;5080849;28;63673;-81
2023/12/24 08:31:11;;;;;;;;;0.00;0.00;;;;;-146.67;56.05;75446.34;5083401;27;62089;-82
2023/12/24 08:33:37;;;;;;;;;1.00;0.00;;;;;-146.67;55.90;75446.34;5082969;27;61889;-82
2023/12/24 08:36:03;;;;;;;;;2.50;2.00;;;;;-146.67;55.96;75436.34;5083113;27;61813;-81
2023/12/24 08:38:28;;;;;;;;;1.00;0.25;;;;;-146.67;55.82;75430.38;5082749;27;61798;-81
2023/12/24 08:40:54;;;;;;;;;3.00;1.00;;;;;-146.67;55.55;75426.38;5082529;27;62048;-82
2023/12/24 08:43:19;;;;;;;;;8.50;1.00;;;;;-146.67;55.44;75422.38;5080624;28;61898;-82
2023/12/24 08:45:44;;;;;;;;;2.00;1.00;;;;;-146.67;55.55;75436.34;5083102;27;61686;-82
2023/12/24 08:48:10;;;;;;;;;3.25;2.00;;;;;-146.67;55.52;75424.38;5082269;27;62771;-82
2023/12/24 08:50:35;;;;;;;;;3.00;2.00;;;;;-146.67;55.28;75422.38;5082084;27;61923;-82
2023/12/24 08:53:01;;;;;;;;;2.50;1.00;;;;;-146.67;55.53;75412.38;5082909;27;61698;-79
2023/12/24 08:55:27;;;;;;;;;1.25;1.00;;;;;-146.67;55.19;75414.38;5082901;28;61972;-82
2023/12/24 08:57:52;;;;;;;;;7.00;2.75;;;;;-146.67;55.36;75420.38;5082048;27;61805;-81
2023/12/24 09:00:18;;;;;;;;;3.50;1.00;;;;;-146.67;55.44;75426.38;5082952;27;61919;-82
2023/12/24 09:02:44;;;;;;;;;4.25;3.00;;;;;-146.67;55.47;75428.38;5081253;28;61898;-82
2023/12/24 09:05:09;;;;;;;;;4.00;3.75;;;;;-146.67;55.28;75424.38;5081209;28;61805;-81
2023/12/24 09:07:35;;;;;;;;;2.50;1.00;;;;;-146.67;55.46;75416.38;5082088;27;61762;-81
2023/12/24 09:10:01;;;;;;;;;7.50;2.25;;;;;-146.67;55.28;75414.38;5082161;27;61898;-82
2023/12/24 09:12:27;;;;;;;;;4.25;0.75;;;;;-146.67;55.11;75398.41;5082584;27;61701;-81
2023/12/24 09:14:52;;;;;;;;;2.25;2.25;;;;;-146.67;54.88;75382.44;5081318;28;61987;-82
2023/12/24 09:17:18;;;;;;;;;1.00;1.00;;;;;-146.67;54.76;75384.44;5082097;27;61826;-82
2023/12/24 09:19:43;;;;;;;;;7.00;2.00;;;;;-146.67;54.47;75358.47;5081778;27;61882;-82
2023/12/24 09:22:08;;;;;;;;;3.00;1.00;;;;;-146.67;54.37;75358.47;5082444;27;61679;-82
2023/12/24 09:24:34;;;;;;;;;2.00;2.00;;;;;-146.67;54.20;75354.47;5082564;27;61881;-82
2023/12/24 09:27:00;;;;;;;;;2.75;1.00;;;;;-146.67;54.24;75356.47;5081829;27;61854;-82
2023/12/24 09:29:26;;;;;;;;;4.00;1.00;;;;;-146.67;53.95;75346.50;5080952;28;61893;-82
2023/12/24 09:31:51;;;;;;;;;3.00;1.75;;;;;-146.67;54.09;75330.53;5082353;27;61855;-82
2023/12/24 09:34:16;;;;;;;;;4.75;3.00;;;;;-146.67;53.98;75332.50;5082057;27;61900;-82
2023/12/24 09:36:42;;;;;;;;;1.00;1.00;;;;;-146.67;54.25;75344.50;5080217;28;64068;-81
2023/12/24 09:39:07;;;;;;;;;1.00;1.00;;;;;-146.67;53.74;75338.50;5080891;28;61919;-82
2023/12/24 09:41:33;;;;;;;;;5.00;3.00;;;;;-146.67;54.06;75332.50;5082659;27;61955;-82
2023/12/24 09:43:59;;;;;;;;;6.75;2.50;;;;;-146.67;53.85;75322.53;5080895;28;62003;-82
2023/12/24 09:46:24;;;;;;;;;4.25;1.00;;;;;-146.67;54.04;75310.56;5080399;28;65045;-82
2023/12/24 09:48:49;;;;;;;;;8.25;1.25;;;;;-146.67;53.90;75316.53;5081780;27;62047;-82
2023/12/24 09:51:15;;;;;;;;;1.00;1.00;;;;;-146.67;53.87;75318.53;5079981;28;61951;-82
2023/12/24 09:53:45;;;;;;;;;2.00;1.00;;;;;-146.67;53.87;75318.53;5082665;28;61819;-82
2023/12/24 09:56:10;;;;;;;;;5.00;1.00;;;;;-146.67;53.98;75308.56;5085187;27;62746;-82
2023/12/24 09:58:35;;;;;;;;;2.00;1.00;;;;;-146.67;53.64;75310.56;5085661;27;61718;-82
2023/12/24 10:01:01;;;;;;;;;1.00;1.00;;;;;-146.67;53.58;75312.53;5084344;28;61672;-82
2023/12/24 10:03:26;;;;;;;;;4.75;1.25;;;;;-146.67;53.62;75310.56;5085744;27;61731;-82
2023/12/24 10:05:59;;;;;;;;;4.00;1.00;;;;;-146.67;53.80;75322.53;5100144;27;64576;-82
2023/12/24 10:08:25;;;;;;;;;2.25;1.50;;;;;-146.67;53.74;75318.53;5084128;28;61927;-82
2023/12/24 10:10:51;;;;;;;;;2.50;1.50;;;;;-146.67;53.84;75322.53;5085555;27;62013;-82
2023/12/24 10:13:20;;;;;;;;;1.00;1.00;;;;;-146.67;53.84;75312.53;5085405;27;61766;-82
2023/12/24 10:15:46;;;;;;;;;3.00;2.00;;;;;-146.67;53.86;75300.56;5083760;28;63598;-82
2023/12/24 10:18:16;;;;;;;;;1.00;1.00;;;;;-146.67;53.62;75286.59;5085013;27;61844;-82
2023/12/24 10:20:41;;;;;;;;;4.50;1.75;;;;;-146.67;53.53;75290.59;5096483;27;61808;-82
2023/12/24 10:23:07;;;;;;;;;3.75;1.75;;;;;-146.67;53.28;75298.56;5085264;27;61925;-82
2023/12/24 10:25:32;;;;;;;;;1.00;1.00;;;;;-146.67;53.42;75276.59;5083455;28;63609;-82
2023/12/24 10:28:05;;;;;;;;;3.00;1.00;;;;;-146.67;53.23;75264.63;5085189;27;61901;-82
2023/12/24 10:30:31;;;;;;;;;4.00;1.00;;;;;-146.67;53.26;75248.66;5083970;28;61864;-82
2023/12/24 10:33:08;;;;;;;;;4.00;1.00;;;;;-146.67;53.11;75224.69;5085224;27;61912;-82
2023/12/24 10:35:34;;;;;;;;;5.00;1.25;;;;;-146.67;52.95;75214.69;5099834;27;63646;-82
2023/12/24 10:38:26;;;;;;;;;1.75;1.50;;;;;-146.67;53.15;75208.72;5085051;28;61748;-82
2023/12/24 10:40:52;;;;;;;;;2.75;1.00;;;;;-146.67;52.61;75194.72;5083024;27;61968;-82
2023/12/24 10:43:17;;;;;;;;;1.00;1.00;;;;;-146.67;52.66;75182.75;5083708;28;61982;-82
2023/12/24 10:45:42;;;;;;;;;3.50;2.25;;;;;-146.67;52.65;75202.72;5084926;28;63558;-81
2023/12/24 10:48:08;;;;;;;;;4.00;3.00;;;;;-146.67;53.07;75204.72;5087269;27;61881;-81
2023/12/24 10:50:34;;;;;;;;;3.75;2.00;;;;;-146.67;52.91;75204.72;5085774;27;61928;-82
2023/12/24 10:52:59;;;;;;;;;1.50;1.50;;;;;-146.67;52.85;75214.69;5087276;27;61778;-82
2023/12/24 10:55:26;;;;;;;;;2.00;1.00;;;;;-146.67;53.03;75230.69;5084057;27;61844;-82
2023/12/24 10:58:31;;;;;;;;;2.50;0.50;;;;;-146.67;53.16;75218.69;5083435;28;61995;-82
2023/12/24 11:01:09;;;;;;;;;4.00;2.75;;;;;-146.67;53.09;75208.72;5084842;28;61819;-82
2023/12/24 11:03:49;;;;;;;;;2.00;2.00;;;;;-146.67;53.22;75216.69;5083322;28;62192;-82
2023/12/24 11:06:36;;;;;;;;;2.50;2.50;;;;;-146.67;53.09;75194.72;5098230;27;63898;-82
2023/12/24 11:09:07;;;;;;;;;1.00;1.00;;;;;-146.67;53.11;75206.72;5084507;28;61904;-81
2023/12/24 11:12:00;;;;;;;;;2.00;1.00;;;;;-146.67;53.17;75200.72;5083335;28;61861;-82